This is the latest recevied weather packets stored in our database for station/object KD4PMP. If no packets are shown the sender has not sent any weather packets the latest 10 day(s).
| Time | Temp. | Humidity | Pressure | Rain* | Wind** | Luminosity | Snow |
|---|---|---|---|---|---|---|---|
| 1788572940 | 25.56° C | 93% | 1012.9 hPa | 0 mm | - | - | - |
| 1788572333 | 25.56° C | 92% | 1012.9 hPa | 0 mm | - | - | - |
| 1788571727 | 25.56° C | 92% | 1012.7 hPa | 0 mm | - | - | - |
| 1788571120 | 25.56° C | 92% | 1012.6 hPa | 0 mm | - | - | - |
| 1788570514 | 25.56° C | 92% | 1012.5 hPa | 0 mm | - | - | - |
| 1788569907 | 25.56° C | 91% | 1012.4 hPa | 0 mm | - | - | - |
| 1788569301 | 25.56° C | 90% | 1012.5 hPa | 0 mm | - | - | - |
| 1788568694 | 26.11° C | 90% | 1012.6 hPa | 0 mm | - | - | - |
| 1788568088 | 26.67° C | 92% | 1012.3 hPa | 0 mm | - | - | - |
| 1788567482 | 26.67° C | 92% | 1012.1 hPa | 0 mm | - | - | - |
| 1788566875 | 26.67° C | 91% | 1012.2 hPa | 0 mm | - | - | - |
| 1788566269 | 26.67° C | 90% | 1012 hPa | 0 mm | - | - | - |
| 1788565675 | 26.67° C | 90% | 1012.1 hPa | 0 mm | - | - | - |
| 1788565056 | 26.67° C | 92% | 1012 hPa | 0 mm | - | - | - |
| 1788564450 | 26.11° C | 90% | 1011.9 hPa | 0 mm | - | - | - |
| 1788563843 | 26.11° C | 90% | 1011.9 hPa | 0 mm | - | - | - |
| 1788563237 | 25.56° C | 90% | 1012 hPa | 0 mm | - | - | - |
| 1788562630 | 25.56° C | 85% | 1012 hPa | 0 mm | - | - | - |
| 1788562024 | 26.11° C | 84% | 1012.3 hPa | 0 mm | - | - | - |
| 1788561417 | 26.11° C | 77% | 1012.4 hPa | 0 mm | - | - | - |
| 1788560811 | 26.67° C | 79% | 1012.7 hPa | 0 mm | - | - | - |
| 1788560204 | 29.44° C | 69% | 1013 hPa | 0 mm | - | - | - |
| 1788559598 | 35.56° C | 50% | 1012.2 hPa | 0 mm | - | - | - |
| 1788558991 | 37.22° C | 49% | 1011.4 hPa | 0 mm | - | - | - |
| 1788558385 | 37.22° C | 49% | 1011.4 hPa | 0 mm | - | - | - |
* Rain latest hour (hover to see other rain measurements)
** Current wind speed in m/s (hover to see current wind gust speed)